sensor_id;sensor_type;location;lat;lon;timestamp;P1;durP1;ratioP1;P2;durP2;ratioP2
58354;SDS011;44160;49.080;19.302;2023-03-20T00:01:00;26.63;;;14.13;;
58354;SDS011;44160;49.080;19.302;2023-03-20T00:03:26;20.73;;;12.27;;
58354;SDS011;44160;49.080;19.302;2023-03-20T00:05:52;21.27;;;11.48;;
58354;SDS011;44160;49.080;19.302;2023-03-20T00:08:18;23.05;;;11.13;;
58354;SDS011;44160;49.080;19.302;2023-03-20T00:10:44;25.77;;;9.77;;
58354;SDS011;44160;49.080;19.302;2023-03-20T00:13:32;23.42;;;10.52;;
58354;SDS011;44160;49.080;19.302;2023-03-20T00:15:57;19.10;;;9.63;;
58354;SDS011;44160;49.080;19.302;2023-03-20T00:18:23;20.30;;;8.73;;
58354;SDS011;44160;49.080;19.302;2023-03-20T00:20:50;23.55;;;9.45;;
58354;SDS011;44160;49.080;19.302;2023-03-20T00:23:17;19.90;;;9.85;;
58354;SDS011;44160;49.080;19.302;2023-03-20T00:25:44;23.15;;;10.25;;
58354;SDS011;44160;49.080;19.302;2023-03-20T00:28:33;21.50;;;9.98;;
58354;SDS011;44160;49.080;19.302;2023-03-20T00:31:02;21.95;;;8.95;;
58354;SDS011;44160;49.080;19.302;2023-03-20T00:33:29;21.23;;;9.05;;
58354;SDS011;44160;49.080;19.302;2023-03-20T00:35:55;19.70;;;9.20;;
58354;SDS011;44160;49.080;19.302;2023-03-20T00:38:23;19.13;;;10.05;;
58354;SDS011;44160;49.080;19.302;2023-03-20T00:40:49;22.17;;;8.98;;
58354;SDS011;44160;49.080;19.302;2023-03-20T00:43:16;17.92;;;9.23;;
58354;SDS011;44160;49.080;19.302;2023-03-20T00:45:42;24.83;;;9.15;;
58354;SDS011;44160;49.080;19.302;2023-03-20T00:48:12;21.48;;;9.60;;
58354;SDS011;44160;49.080;19.302;2023-03-20T00:50:38;15.23;;;9.05;;
58354;SDS011;44160;49.080;19.302;2023-03-20T00:53:04;24.33;;;9.40;;
58354;SDS011;44160;49.080;19.302;2023-03-20T00:55:30;18.08;;;9.60;;
58354;SDS011;44160;49.080;19.302;2023-03-20T00:57:57;19.33;;;9.57;;
58354;SDS011;44160;49.080;19.302;2023-03-20T01:00:25;17.05;;;8.80;;
58354;SDS011;44160;49.080;19.302;2023-03-20T01:02:55;21.43;;;8.90;;
58354;SDS011;44160;49.080;19.302;2023-03-20T01:05:22;17.83;;;9.45;;
58354;SDS011;44160;49.080;19.302;2023-03-20T01:07:48;16.48;;;9.05;;
58354;SDS011;44160;49.080;19.302;2023-03-20T01:10:14;18.15;;;9.48;;
58354;SDS011;44160;49.080;19.302;2023-03-20T01:12:41;18.23;;;9.57;;
58354;SDS011;44160;49.080;19.302;2023-03-20T01:15:14;23.10;;;9.23;;
58354;SDS011;44160;49.080;19.302;2023-03-20T01:17:41;18.17;;;8.63;;
58354;SDS011;44160;49.080;19.302;2023-03-20T01:20:14;20.88;;;9.15;;
58354;SDS011;44160;49.080;19.302;2023-03-20T01:22:40;19.02;;;8.52;;
58354;SDS011;44160;49.080;19.302;2023-03-20T01:25:06;16.58;;;9.43;;
58354;SDS011;44160;49.080;19.302;2023-03-20T01:27:32;16.25;;;7.68;;
58354;SDS011;44160;49.080;19.302;2023-03-20T01:29:58;18.42;;;8.55;;
58354;SDS011;44160;49.080;19.302;2023-03-20T01:32:25;20.15;;;8.68;;
58354;SDS011;44160;49.080;19.302;2023-03-20T01:34:51;17.13;;;8.55;;
58354;SDS011;44160;49.080;19.302;2023-03-20T01:37:25;16.48;;;8.98;;
58354;SDS011;44160;49.080;19.302;2023-03-20T01:39:52;15.65;;;7.80;;
58354;SDS011;44160;49.080;19.302;2023-03-20T01:42:18;13.80;;;7.60;;
58354;SDS011;44160;49.080;19.302;2023-03-20T01:44:44;16.08;;;8.30;;
58354;SDS011;44160;49.080;19.302;2023-03-20T01:47:14;14.98;;;8.18;;
58354;SDS011;44160;49.080;19.302;2023-03-20T01:52:25;20.27;;;9.50;;
58354;SDS011;44160;49.080;19.302;2023-03-20T01:54:51;16.63;;;7.75;;
58354;SDS011;44160;49.080;19.302;2023-03-20T01:57:19;15.70;;;8.43;;
58354;SDS011;44160;49.080;19.302;2023-03-20T01:59:50;23.77;;;8.05;;
58354;SDS011;44160;49.080;19.302;2023-03-20T02:02:21;27.20;;;9.40;;
58354;SDS011;44160;49.080;19.302;2023-03-20T02:04:49;15.00;;;8.48;;
58354;SDS011;44160;49.080;19.302;2023-03-20T02:07:17;16.88;;;9.15;;
58354;SDS011;44160;49.080;19.302;2023-03-20T02:09:45;20.23;;;10.70;;
58354;SDS011;44160;49.080;19.302;2023-03-20T02:12:11;22.05;;;11.25;;
58354;SDS011;44160;49.080;19.302;2023-03-20T02:14:38;18.75;;;10.73;;
58354;SDS011;44160;49.080;19.302;2023-03-20T02:17:04;20.25;;;9.43;;
58354;SDS011;44160;49.080;19.302;2023-03-20T02:22:12;17.42;;;9.00;;
58354;SDS011;44160;49.080;19.302;2023-03-20T02:30:17;14.13;;;7.57;;
58354;SDS011;44160;49.080;19.302;2023-03-20T02:43:34;20.77;;;8.68;;
58354;SDS011;44160;49.080;19.302;2023-03-20T02:45:47;29.80;;;9.45;;
58354;SDS011;44160;49.080;19.302;2023-03-20T02:48:18;22.33;;;10.57;;
58354;SDS011;44160;49.080;19.302;2023-03-20T02:51:00;27.52;;;9.88;;
58354;SDS011;44160;49.080;19.302;2023-03-20T02:56:06;20.55;;;9.27;;
58354;SDS011;44160;49.080;19.302;2023-03-20T02:58:48;32.45;;;10.43;;
58354;SDS011;44160;49.080;19.302;2023-03-20T03:04:05;23.00;;;10.30;;
58354;SDS011;44160;49.080;19.302;2023-03-20T03:06:34;26.73;;;10.13;;
58354;SDS011;44160;49.080;19.302;2023-03-20T03:09:12;33.50;;;9.70;;
58354;SDS011;44160;49.080;19.302;2023-03-20T03:11:40;22.20;;;10.10;;
58354;SDS011;44160;49.080;19.302;2023-03-20T03:14:12;22.83;;;9.63;;
58354;SDS011;44160;49.080;19.302;2023-03-20T03:16:39;24.08;;;10.20;;
58354;SDS011;44160;49.080;19.302;2023-03-20T03:19:11;26.45;;;10.13;;
58354;SDS011;44160;49.080;19.302;2023-03-20T03:21:38;28.08;;;10.35;;
58354;SDS011;44160;49.080;19.302;2023-03-20T03:24:05;18.52;;;10.00;;
58354;SDS011;44160;49.080;19.302;2023-03-20T03:26:36;47.50;;;21.60;;
58354;SDS011;44160;49.080;19.302;2023-03-20T03:29:04;22.48;;;10.85;;
58354;SDS011;44160;49.080;19.302;2023-03-20T03:31:31;22.38;;;12.07;;
58354;SDS011;44160;49.080;19.302;2023-03-20T03:33:58;19.83;;;11.27;;
58354;SDS011;44160;49.080;19.302;2023-03-20T03:39:16;20.02;;;10.35;;
58354;SDS011;44160;49.080;19.302;2023-03-20T03:42:03;21.80;;;14.15;;
58354;SDS011;44160;49.080;19.302;2023-03-20T03:45:04;14.23;;;8.50;;
58354;SDS011;44160;49.080;19.302;2023-03-20T03:53:13;17.50;;;10.23;;
58354;SDS011;44160;49.080;19.302;2023-03-20T03:55:49;23.25;;;13.07;;
58354;SDS011;44160;49.080;19.302;2023-03-20T03:58:20;22.30;;;8.95;;
58354;SDS011;44160;49.080;19.302;2023-03-20T04:00:48;25.13;;;13.10;;
58354;SDS011;44160;49.080;19.302;2023-03-20T04:03:16;19.55;;;11.02;;
58354;SDS011;44160;49.080;19.302;2023-03-20T04:05:43;20.63;;;11.05;;
58354;SDS011;44160;49.080;19.302;2023-03-20T04:08:10;15.65;;;9.05;;
58354;SDS011;44160;49.080;19.302;2023-03-20T04:10:36;15.27;;;7.00;;
58354;SDS011;44160;49.080;19.302;2023-03-20T04:13:02;17.52;;;7.93;;
58354;SDS011;44160;49.080;19.302;2023-03-20T04:15:28;15.60;;;7.10;;
58354;SDS011;44160;49.080;19.302;2023-03-20T04:17:54;14.50;;;7.90;;
58354;SDS011;44160;49.080;19.302;2023-03-20T04:20:20;15.57;;;7.50;;
58354;SDS011;44160;49.080;19.302;2023-03-20T04:22:48;13.43;;;6.82;;
58354;SDS011;44160;49.080;19.302;2023-03-20T04:25:24;14.70;;;8.52;;
58354;SDS011;44160;49.080;19.302;2023-03-20T04:27:53;16.58;;;9.05;;
58354;SDS011;44160;49.080;19.302;2023-03-20T04:30:19;15.88;;;9.13;;
58354;SDS011;44160;49.080;19.302;2023-03-20T04:32:45;16.80;;;9.05;;
58354;SDS011;44160;49.080;19.302;2023-03-20T04:35:11;26.75;;;9.55;;
58354;SDS011;44160;49.080;19.302;2023-03-20T04:37:37;23.05;;;10.48;;
58354;SDS011;44160;49.080;19.302;2023-03-20T04:40:04;24.58;;;9.75;;
58354;SDS011;44160;49.080;19.302;2023-03-20T04:42:30;19.83;;;9.18;;
58354;SDS011;44160;49.080;19.302;2023-03-20T04:44:56;17.02;;;10.70;;
58354;SDS011;44160;49.080;19.302;2023-03-20T04:47:22;26.98;;;11.43;;
58354;SDS011;44160;49.080;19.302;2023-03-20T04:49:48;28.50;;;12.38;;
58354;SDS011;44160;49.080;19.302;2023-03-20T04:52:14;156.75;;;69.03;;
58354;SDS011;44160;49.080;19.302;2023-03-20T04:54:40;208.93;;;86.65;;
58354;SDS011;44160;49.080;19.302;2023-03-20T04:57:07;46.15;;;25.15;;
58354;SDS011;44160;49.080;19.302;2023-03-20T04:59:33;37.40;;;15.25;;
58354;SDS011;44160;49.080;19.302;2023-03-20T05:01:59;41.35;;;17.60;;
58354;SDS011;44160;49.080;19.302;2023-03-20T05:04:25;30.70;;;13.20;;
58354;SDS011;44160;49.080;19.302;2023-03-20T05:06:51;32.15;;;14.70;;
58354;SDS011;44160;49.080;19.302;2023-03-20T05:09:17;29.45;;;16.33;;
58354;SDS011;44160;49.080;19.302;2023-03-20T05:11:43;28.67;;;13.73;;
58354;SDS011;44160;49.080;19.302;2023-03-20T05:14:09;31.60;;;14.68;;
58354;SDS011;44160;49.080;19.302;2023-03-20T05:16:36;41.30;;;19.00;;
58354;SDS011;44160;49.080;19.302;2023-03-20T05:19:02;28.77;;;12.60;;
58354;SDS011;44160;49.080;19.302;2023-03-20T05:21:28;38.97;;;17.92;;
58354;SDS011;44160;49.080;19.302;2023-03-20T05:23:54;28.30;;;13.63;;
58354;SDS011;44160;49.080;19.302;2023-03-20T05:26:20;24.90;;;10.20;;
58354;SDS011;44160;49.080;19.302;2023-03-20T05:28:47;23.30;;;9.60;;
58354;SDS011;44160;49.080;19.302;2023-03-20T05:31:13;26.60;;;9.30;;
58354;SDS011;44160;49.080;19.302;2023-03-20T05:33:39;22.17;;;8.93;;
58354;SDS011;44160;49.080;19.302;2023-03-20T05:36:05;27.92;;;9.25;;
58354;SDS011;44160;49.080;19.302;2023-03-20T05:38:31;21.38;;;9.27;;
58354;SDS011;44160;49.080;19.302;2023-03-20T05:40:58;25.73;;;10.45;;
58354;SDS011;44160;49.080;19.302;2023-03-20T05:43:24;28.13;;;10.75;;
58354;SDS011;44160;49.080;19.302;2023-03-20T05:45:52;12.40;;;8.35;;
58354;SDS011;44160;49.080;19.302;2023-03-20T05:48:18;18.17;;;9.43;;
58354;SDS011;44160;49.080;19.302;2023-03-20T05:50:45;15.32;;;8.90;;
58354;SDS011;44160;49.080;19.302;2023-03-20T05:53:12;22.30;;;9.15;;
58354;SDS011;44160;49.080;19.302;2023-03-20T05:55:38;19.80;;;9.00;;
58354;SDS011;44160;49.080;19.302;2023-03-20T05:58:05;15.02;;;8.25;;
58354;SDS011;44160;49.080;19.302;2023-03-20T06:00:31;20.98;;;9.45;;
58354;SDS011;44160;49.080;19.302;2023-03-20T06:02:57;22.48;;;8.57;;
58354;SDS011;44160;49.080;19.302;2023-03-20T06:05:23;21.23;;;8.60;;
58354;SDS011;44160;49.080;19.302;2023-03-20T06:07:50;19.55;;;8.52;;
58354;SDS011;44160;49.080;19.302;2023-03-20T06:10:16;23.40;;;9.82;;
58354;SDS011;44160;49.080;19.302;2023-03-20T06:12:44;19.85;;;10.05;;
58354;SDS011;44160;49.080;19.302;2023-03-20T06:15:10;17.48;;;8.55;;
58354;SDS011;44160;49.080;19.302;2023-03-20T06:17:37;24.13;;;10.90;;
58354;SDS011;44160;49.080;19.302;2023-03-20T06:20:03;21.50;;;10.52;;
58354;SDS011;44160;49.080;19.302;2023-03-20T06:22:30;23.55;;;11.38;;
58354;SDS011;44160;49.080;19.302;2023-03-20T06:24:56;27.55;;;10.88;;
58354;SDS011;44160;49.080;19.302;2023-03-20T06:27:22;26.75;;;11.80;;
58354;SDS011;44160;49.080;19.302;2023-03-20T06:29:48;35.67;;;12.50;;
58354;SDS011;44160;49.080;19.302;2023-03-20T06:32:14;37.72;;;13.43;;
58354;SDS011;44160;49.080;19.302;2023-03-20T06:34:41;29.55;;;13.32;;
58354;SDS011;44160;49.080;19.302;2023-03-20T06:37:07;37.53;;;14.05;;
58354;SDS011;44160;49.080;19.302;2023-03-20T06:39:34;34.45;;;13.75;;
58354;SDS011;44160;49.080;19.302;2023-03-20T06:42:00;32.03;;;12.68;;
58354;SDS011;44160;49.080;19.302;2023-03-20T06:44:26;21.15;;;12.27;;
58354;SDS011;44160;49.080;19.302;2023-03-20T06:46:52;27.92;;;13.52;;
58354;SDS011;44160;49.080;19.302;2023-03-20T06:49:19;29.08;;;12.80;;
58354;SDS011;44160;49.080;19.302;2023-03-20T06:51:45;17.58;;;10.15;;
58354;SDS011;44160;49.080;19.302;2023-03-20T06:54:12;17.15;;;10.43;;
58354;SDS011;44160;49.080;19.302;2023-03-20T06:56:38;21.58;;;10.98;;
58354;SDS011;44160;49.080;19.302;2023-03-20T06:59:06;22.30;;;11.10;;
58354;SDS011;44160;49.080;19.302;2023-03-20T07:01:33;26.33;;;11.35;;
58354;SDS011;44160;49.080;19.302;2023-03-20T07:04:00;22.92;;;11.88;;
58354;SDS011;44160;49.080;19.302;2023-03-20T07:06:30;30.33;;;15.15;;
58354;SDS011;44160;49.080;19.302;2023-03-20T07:08:56;32.90;;;16.63;;
58354;SDS011;44160;49.080;19.302;2023-03-20T07:11:22;38.03;;;18.48;;
58354;SDS011;44160;49.080;19.302;2023-03-20T07:14:01;35.38;;;19.40;;
58354;SDS011;44160;49.080;19.302;2023-03-20T07:16:30;30.00;;;19.90;;
58354;SDS011;44160;49.080;19.302;2023-03-20T07:18:56;33.65;;;18.95;;
58354;SDS011;44160;49.080;19.302;2023-03-20T07:21:23;28.42;;;14.48;;
58354;SDS011;44160;49.080;19.302;2023-03-20T07:23:49;26.27;;;13.68;;
58354;SDS011;44160;49.080;19.302;2023-03-20T07:26:18;24.45;;;12.95;;
58354;SDS011;44160;49.080;19.302;2023-03-20T07:28:44;22.75;;;13.35;;
58354;SDS011;44160;49.080;19.302;2023-03-20T07:31:17;21.48;;;13.32;;
58354;SDS011;44160;49.080;19.302;2023-03-20T07:33:44;26.48;;;12.75;;
58354;SDS011;44160;49.080;19.302;2023-03-20T07:36:10;22.33;;;11.70;;
58354;SDS011;44160;49.080;19.302;2023-03-20T07:38:36;24.13;;;13.07;;
58354;SDS011;44160;49.080;19.302;2023-03-20T07:41:02;23.38;;;13.32;;
58354;SDS011;44160;49.080;19.302;2023-03-20T07:43:28;27.25;;;12.68;;
58354;SDS011;44160;49.080;19.302;2023-03-20T07:45:54;25.25;;;12.30;;
58354;SDS011;44160;49.080;19.302;2023-03-20T07:48:20;24.98;;;12.35;;
58354;SDS011;44160;49.080;19.302;2023-03-20T07:50:46;32.45;;;15.32;;
58354;SDS011;44160;49.080;19.302;2023-03-20T07:53:12;30.52;;;16.35;;
58354;SDS011;44160;49.080;19.302;2023-03-20T07:55:41;31.77;;;16.42;;
58354;SDS011;44160;49.080;19.302;2023-03-20T07:58:08;53.17;;;25.15;;
58354;SDS011;44160;49.080;19.302;2023-03-20T08:00:35;24.08;;;12.95;;
58354;SDS011;44160;49.080;19.302;2023-03-20T08:03:01;24.92;;;12.45;;
58354;SDS011;44160;49.080;19.302;2023-03-20T08:05:28;17.88;;;10.00;;
58354;SDS011;44160;49.080;19.302;2023-03-20T08:07:54;15.30;;;10.55;;
58354;SDS011;44160;49.080;19.302;2023-03-20T08:10:20;20.90;;;9.55;;
58354;SDS011;44160;49.080;19.302;2023-03-20T08:12:47;12.18;;;8.55;;
58354;SDS011;44160;49.080;19.302;2023-03-20T08:15:13;15.15;;;7.63;;
58354;SDS011;44160;49.080;19.302;2023-03-20T08:17:42;16.00;;;7.72;;
58354;SDS011;44160;49.080;19.302;2023-03-20T08:20:08;23.90;;;9.10;;
58354;SDS011;44160;49.080;19.302;2023-03-20T08:22:35;14.52;;;8.27;;
58354;SDS011;44160;49.080;19.302;2023-03-20T08:25:01;12.13;;;7.40;;
58354;SDS011;44160;49.080;19.302;2023-03-20T08:27:27;15.60;;;7.80;;
58354;SDS011;44160;49.080;19.302;2023-03-20T08:29:56;13.50;;;7.95;;
58354;SDS011;44160;49.080;19.302;2023-03-20T08:32:22;15.40;;;8.80;;
58354;SDS011;44160;49.080;19.302;2023-03-20T08:34:53;13.65;;;8.65;;
58354;SDS011;44160;49.080;19.302;2023-03-20T08:37:19;15.10;;;8.98;;
58354;SDS011;44160;49.080;19.302;2023-03-20T08:39:46;20.02;;;8.98;;
58354;SDS011;44160;49.080;19.302;2023-03-20T08:42:14;20.63;;;8.77;;
58354;SDS011;44160;49.080;19.302;2023-03-20T08:44:41;10.15;;;7.63;;
58354;SDS011;44160;49.080;19.302;2023-03-20T08:47:07;12.63;;;8.43;;
58354;SDS011;44160;49.080;19.302;2023-03-20T08:49:35;14.93;;;9.98;;
58354;SDS011;44160;49.080;19.302;2023-03-20T08:52:01;13.00;;;8.48;;
58354;SDS011;44160;49.080;19.302;2023-03-20T08:54:27;15.57;;;8.75;;
58354;SDS011;44160;49.080;19.302;2023-03-20T08:56:53;10.80;;;7.90;;
58354;SDS011;44160;49.080;19.302;2023-03-20T08:59:20;12.63;;;8.13;;
58354;SDS011;44160;49.080;19.302;2023-03-20T09:01:46;12.63;;;8.70;;
58354;SDS011;44160;49.080;19.302;2023-03-20T09:04:12;17.88;;;8.25;;
58354;SDS011;44160;49.080;19.302;2023-03-20T09:06:39;17.17;;;8.57;;
58354;SDS011;44160;49.080;19.302;2023-03-20T09:09:05;13.07;;;9.32;;
58354;SDS011;44160;49.080;19.302;2023-03-20T09:11:32;12.38;;;9.20;;
58354;SDS011;44160;49.080;19.302;2023-03-20T09:13:58;14.95;;;9.73;;
58354;SDS011;44160;49.080;19.302;2023-03-20T09:16:25;15.45;;;9.30;;
58354;SDS011;44160;49.080;19.302;2023-03-20T09:18:51;14.80;;;10.05;;
58354;SDS011;44160;49.080;19.302;2023-03-20T09:21:17;13.48;;;9.23;;
58354;SDS011;44160;49.080;19.302;2023-03-20T09:23:43;16.20;;;8.50;;
58354;SDS011;44160;49.080;19.302;2023-03-20T09:26:12;18.98;;;8.55;;
58354;SDS011;44160;49.080;19.302;2023-03-20T09:28:38;13.18;;;7.18;;
58354;SDS011;44160;49.080;19.302;2023-03-20T09:31:05;12.82;;;8.77;;
58354;SDS011;44160;49.080;19.302;2023-03-20T09:33:31;14.57;;;8.35;;
58354;SDS011;44160;49.080;19.302;2023-03-20T09:35:57;13.27;;;8.25;;
58354;SDS011;44160;49.080;19.302;2023-03-20T09:38:23;11.10;;;6.97;;
58354;SDS011;44160;49.080;19.302;2023-03-20T09:43:32;11.63;;;7.25;;
58354;SDS011;44160;49.080;19.302;2023-03-20T09:46:10;11.48;;;8.05;;
58354;SDS011;44160;49.080;19.302;2023-03-20T09:51:52;12.73;;;7.72;;
58354;SDS011;44160;49.080;19.302;2023-03-20T09:54:34;15.73;;;8.48;;
58354;SDS011;44160;49.080;19.302;2023-03-20T09:57:02;17.50;;;9.15;;
58354;SDS011;44160;49.080;19.302;2023-03-20T09:59:28;14.65;;;8.38;;
58354;SDS011;44160;49.080;19.302;2023-03-20T10:01:59;14.40;;;8.30;;
58354;SDS011;44160;49.080;19.302;2023-03-20T10:04:29;12.73;;;7.95;;
58354;SDS011;44160;49.080;19.302;2023-03-20T10:06:56;13.25;;;7.70;;
58354;SDS011;44160;49.080;19.302;2023-03-20T10:09:26;14.43;;;8.18;;
58354;SDS011;44160;49.080;19.302;2023-03-20T10:17:32;11.82;;;7.82;;
58354;SDS011;44160;49.080;19.302;2023-03-20T10:20:21;10.18;;;7.75;;
58354;SDS011;44160;49.080;19.302;2023-03-20T10:22:52;14.52;;;8.32;;
58354;SDS011;44160;49.080;19.302;2023-03-20T10:25:27;13.13;;;8.35;;
58354;SDS011;44160;49.080;19.302;2023-03-20T10:36:42;10.35;;;7.45;;
58354;SDS011;44160;49.080;19.302;2023-03-20T10:39:13;10.13;;;7.05;;
58354;SDS011;44160;49.080;19.302;2023-03-20T10:41:44;12.32;;;7.28;;
58354;SDS011;44160;49.080;19.302;2023-03-20T10:44:18;13.13;;;6.70;;
58354;SDS011;44160;49.080;19.302;2023-03-20T10:46:47;9.85;;;6.32;;
58354;SDS011;44160;49.080;19.302;2023-03-20T10:51:51;7.60;;;5.47;;
58354;SDS011;44160;49.080;19.302;2023-03-20T10:56:51;9.85;;;5.90;;
58354;SDS011;44160;49.080;19.302;2023-03-20T10:59:25;8.77;;;5.18;;
58354;SDS011;44160;49.080;19.302;2023-03-20T11:01:52;27.08;;;17.35;;
58354;SDS011;44160;49.080;19.302;2023-03-20T11:04:28;11.57;;;6.20;;
58354;SDS011;44160;49.080;19.302;2023-03-20T11:07:02;8.32;;;4.95;;
58354;SDS011;44160;49.080;19.302;2023-03-20T11:09:31;13.23;;;6.00;;
58354;SDS011;44160;49.080;19.302;2023-03-20T11:12:04;12.63;;;8.63;;
58354;SDS011;44160;49.080;19.302;2023-03-20T11:14:42;10.45;;;6.07;;
58354;SDS011;44160;49.080;19.302;2023-03-20T11:17:12;8.70;;;5.75;;
58354;SDS011;44160;49.080;19.302;2023-03-20T11:20:22;6.45;;;4.18;;
58354;SDS011;44160;49.080;19.302;2023-03-20T11:23:00;6.75;;;4.25;;
58354;SDS011;44160;49.080;19.302;2023-03-20T11:25:39;4.63;;;3.13;;
58354;SDS011;44160;49.080;19.302;2023-03-20T11:28:45;10.93;;;4.65;;
58354;SDS011;44160;49.080;19.302;2023-03-20T11:31:05;12.38;;;5.05;;
58354;SDS011;44160;49.080;19.302;2023-03-20T11:33:45;5.90;;;2.83;;
58354;SDS011;44160;49.080;19.302;2023-03-20T11:36:24;5.95;;;3.33;;
58354;SDS011;44160;49.080;19.302;2023-03-20T11:39:12;8.65;;;3.30;;
58354;SDS011;44160;49.080;19.302;2023-03-20T11:41:46;5.93;;;3.15;;
58354;SDS011;44160;49.080;19.302;2023-03-20T11:44:25;3.88;;;3.08;;
58354;SDS011;44160;49.080;19.302;2023-03-20T11:46:55;3.97;;;2.38;;
58354;SDS011;44160;49.080;19.302;2023-03-20T11:49:24;7.78;;;3.25;;
58354;SDS011;44160;49.080;19.302;2023-03-20T11:51:59;5.60;;;3.05;;
58354;SDS011;44160;49.080;19.302;2023-03-20T11:54:35;5.28;;;3.42;;
58354;SDS011;44160;49.080;19.302;2023-03-20T11:57:06;4.80;;;2.60;;
58354;SDS011;44160;49.080;19.302;2023-03-20T11:59:32;3.40;;;2.65;;
58354;SDS011;44160;49.080;19.302;2023-03-20T12:02:03;3.80;;;2.58;;
58354;SDS011;44160;49.080;19.302;2023-03-20T12:04:31;3.65;;;2.55;;
58354;SDS011;44160;49.080;19.302;2023-03-20T12:12:00;6.18;;;2.85;;
58354;SDS011;44160;49.080;19.302;2023-03-20T12:14:36;4.85;;;2.88;;
58354;SDS011;44160;49.080;19.302;2023-03-20T12:23:21;3.15;;;2.10;;
58354;SDS011;44160;49.080;19.302;2023-03-20T12:26:02;5.47;;;2.10;;
58354;SDS011;44160;49.080;19.302;2023-03-20T12:31:19;3.72;;;2.67;;
58354;SDS011;44160;49.080;19.302;2023-03-20T12:36:42;7.70;;;3.30;;
58354;SDS011;44160;49.080;19.302;2023-03-20T12:42:16;5.00;;;2.67;;
58354;SDS011;44160;49.080;19.302;2023-03-20T12:44:47;3.90;;;2.72;;
58354;SDS011;44160;49.080;19.302;2023-03-20T12:47:40;3.88;;;2.55;;
58354;SDS011;44160;49.080;19.302;2023-03-20T12:55:27;5.95;;;3.00;;
58354;SDS011;44160;49.080;19.302;2023-03-20T13:05:57;5.18;;;2.28;;
58354;SDS011;44160;49.080;19.302;2023-03-20T13:08:29;5.80;;;2.88;;
58354;SDS011;44160;49.080;19.302;2023-03-20T13:19:23;5.00;;;3.40;;
58354;SDS011;44160;49.080;19.302;2023-03-20T13:22:00;4.75;;;3.10;;
58354;SDS011;44160;49.080;19.302;2023-03-20T13:27:07;6.85;;;2.50;;
58354;SDS011;44160;49.080;19.302;2023-03-20T13:29:39;5.95;;;2.63;;
58354;SDS011;44160;49.080;19.302;2023-03-20T13:34:43;6.07;;;4.00;;
58354;SDS011;44160;49.080;19.302;2023-03-20T13:40:13;6.68;;;4.07;;
58354;SDS011;44160;49.080;19.302;2023-03-20T13:43:04;7.93;;;3.58;;
58354;SDS011;44160;49.080;19.302;2023-03-20T13:45:40;5.97;;;3.58;;
58354;SDS011;44160;49.080;19.302;2023-03-20T13:48:29;6.63;;;3.28;;
58354;SDS011;44160;49.080;19.302;2023-03-20T13:50:56;7.32;;;3.47;;
58354;SDS011;44160;49.080;19.302;2023-03-20T13:58:53;6.47;;;4.05;;
58354;SDS011;44160;49.080;19.302;2023-03-20T14:01:24;5.95;;;3.40;;
58354;SDS011;44160;49.080;19.302;2023-03-20T14:03:55;5.70;;;3.75;;
58354;SDS011;44160;49.080;19.302;2023-03-20T14:08:57;5.30;;;3.90;;
58354;SDS011;44160;49.080;19.302;2023-03-20T14:16:26;7.55;;;4.13;;
58354;SDS011;44160;49.080;19.302;2023-03-20T14:21:32;6.72;;;4.50;;
58354;SDS011;44160;49.080;19.302;2023-03-20T14:24:03;8.45;;;4.65;;
58354;SDS011;44160;49.080;19.302;2023-03-20T14:26:30;8.38;;;4.38;;
58354;SDS011;44160;49.080;19.302;2023-03-20T14:29:39;10.80;;;4.60;;
58354;SDS011;44160;49.080;19.302;2023-03-20T14:31:52;8.57;;;5.07;;
58354;SDS011;44160;49.080;19.302;2023-03-20T14:34:27;11.88;;;8.20;;
58354;SDS011;44160;49.080;19.302;2023-03-20T14:39:58;8.88;;;5.07;;
58354;SDS011;44160;49.080;19.302;2023-03-20T14:50:17;9.90;;;6.90;;
58354;SDS011;44160;49.080;19.302;2023-03-20T14:57:48;11.85;;;6.80;;
58354;SDS011;44160;49.080;19.302;2023-03-20T15:02:45;11.63;;;8.05;;
58354;SDS011;44160;49.080;19.302;2023-03-20T15:05:26;8.10;;;5.70;;
58354;SDS011;44160;49.080;19.302;2023-03-20T15:07:54;11.57;;;6.30;;
58354;SDS011;44160;49.080;19.302;2023-03-20T15:10:21;8.88;;;5.55;;
58354;SDS011;44160;49.080;19.302;2023-03-20T15:12:49;8.02;;;6.00;;
58354;SDS011;44160;49.080;19.302;2023-03-20T15:15:29;8.43;;;6.20;;
58354;SDS011;44160;49.080;19.302;2023-03-20T15:18:01;10.65;;;5.47;;
58354;SDS011;44160;49.080;19.302;2023-03-20T15:20:28;8.70;;;5.38;;
58354;SDS011;44160;49.080;19.302;2023-03-20T15:22:55;11.00;;;5.63;;
58354;SDS011;44160;49.080;19.302;2023-03-20T15:25:22;8.55;;;5.88;;
58354;SDS011;44160;49.080;19.302;2023-03-20T15:27:49;8.02;;;6.22;;
58354;SDS011;44160;49.080;19.302;2023-03-20T15:30:17;11.68;;;6.45;;
58354;SDS011;44160;49.080;19.302;2023-03-20T15:32:47;16.90;;;6.60;;
58354;SDS011;44160;49.080;19.302;2023-03-20T15:35:21;11.02;;;6.57;;
58354;SDS011;44160;49.080;19.302;2023-03-20T15:37:48;16.83;;;9.40;;
58354;SDS011;44160;49.080;19.302;2023-03-20T15:42:51;15.20;;;8.75;;
58354;SDS011;44160;49.080;19.302;2023-03-20T15:45:22;12.45;;;7.80;;
58354;SDS011;44160;49.080;19.302;2023-03-20T15:47:50;12.85;;;8.35;;
58354;SDS011;44160;49.080;19.302;2023-03-20T15:50:16;13.57;;;8.15;;
58354;SDS011;44160;49.080;19.302;2023-03-20T15:52:44;12.88;;;6.68;;
58354;SDS011;44160;49.080;19.302;2023-03-20T15:55:17;13.52;;;7.85;;
58354;SDS011;44160;49.080;19.302;2023-03-20T15:57:44;11.95;;;7.28;;
58354;SDS011;44160;49.080;19.302;2023-03-20T16:02:47;12.52;;;7.82;;
58354;SDS011;44160;49.080;19.302;2023-03-20T16:05:14;17.15;;;8.80;;
58354;SDS011;44160;49.080;19.302;2023-03-20T16:07:40;15.10;;;8.35;;
58354;SDS011;44160;49.080;19.302;2023-03-20T16:10:17;13.23;;;9.00;;
58354;SDS011;44160;49.080;19.302;2023-03-20T16:12:47;18.60;;;8.77;;
58354;SDS011;44160;49.080;19.302;2023-03-20T16:15:17;17.43;;;8.97;;
58354;SDS011;44160;49.080;19.302;2023-03-20T16:17:47;20.95;;;10.98;;
58354;SDS011;44160;49.080;19.302;2023-03-20T16:20:15;16.40;;;10.23;;
58354;SDS011;44160;49.080;19.302;2023-03-20T16:22:42;34.50;;;11.18;;
58354;SDS011;44160;49.080;19.302;2023-03-20T16:25:13;21.98;;;10.63;;
58354;SDS011;44160;49.080;19.302;2023-03-20T16:30:21;19.50;;;10.13;;
58354;SDS011;44160;49.080;19.302;2023-03-20T16:35:50;17.70;;;8.65;;
58354;SDS011;44160;49.080;19.302;2023-03-20T16:40:51;14.30;;;7.50;;
58354;SDS011;44160;49.080;19.302;2023-03-20T16:43:20;19.98;;;9.68;;
58354;SDS011;44160;49.080;19.302;2023-03-20T16:45:52;35.13;;;19.95;;
58354;SDS011;44160;49.080;19.302;2023-03-20T16:50:58;33.25;;;18.15;;
58354;SDS011;44160;49.080;19.302;2023-03-20T16:53:32;24.52;;;13.73;;
58354;SDS011;44160;49.080;19.302;2023-03-20T16:56:05;18.38;;;10.20;;
58354;SDS011;44160;49.080;19.302;2023-03-20T16:58:35;20.92;;;9.40;;
58354;SDS011;44160;49.080;19.302;2023-03-20T17:01:06;24.63;;;9.75;;
58354;SDS011;44160;49.080;19.302;2023-03-20T17:03:34;15.02;;;8.85;;
58354;SDS011;44160;49.080;19.302;2023-03-20T17:06:06;15.75;;;8.57;;
58354;SDS011;44160;49.080;19.302;2023-03-20T17:08:43;13.65;;;9.13;;
58354;SDS011;44160;49.080;19.302;2023-03-20T17:11:14;26.98;;;12.20;;